sensor_id;sensor_type;location;lat;lon;timestamp;temperature;humidity
48551;DHT22;34397;51.176;6.738;2022-09-30T00:02:00;8.90;57.40
48551;DHT22;34397;51.176;6.738;2022-09-30T00:04:32;8.90;57.10
48551;DHT22;34397;51.176;6.738;2022-09-30T00:07:03;8.90;57.70
48551;DHT22;34397;51.176;6.738;2022-09-30T00:09:35;8.80;58.00
48551;DHT22;34397;51.176;6.738;2022-09-30T00:12:07;8.80;58.30
48551;DHT22;34397;51.176;6.738;2022-09-30T00:14:40;8.80;58.30
48551;DHT22;34397;51.176;6.738;2022-09-30T00:17:12;8.80;58.10
48551;DHT22;34397;51.176;6.738;2022-09-30T00:19:44;8.80;58.00
48551;DHT22;34397;51.176;6.738;2022-09-30T00:22:16;8.80;58.00
48551;DHT22;34397;51.176;6.738;2022-09-30T00:24:48;8.70;57.90
48551;DHT22;34397;51.176;6.738;2022-09-30T00:27:20;8.70;58.10
48551;DHT22;34397;51.176;6.738;2022-09-30T00:29:54;8.70;58.30
48551;DHT22;34397;51.176;6.738;2022-09-30T00:32:25;8.70;58.10
48551;DHT22;34397;51.176;6.738;2022-09-30T00:34:57;8.60;57.40
48551;DHT22;34397;51.176;6.738;2022-09-30T00:37:29;8.60;58.10
48551;DHT22;34397;51.176;6.738;2022-09-30T00:40:01;8.60;58.30
48551;DHT22;34397;51.176;6.738;2022-09-30T00:42:32;8.60;58.60
48551;DHT22;34397;51.176;6.738;2022-09-30T00:45:09;8.60;58.90
48551;DHT22;34397;51.176;6.738;2022-09-30T00:47:45;8.60;59.00
48551;DHT22;34397;51.176;6.738;2022-09-30T00:50:28;8.60;58.80
48551;DHT22;34397;51.176;6.738;2022-09-30T00:53:09;8.60;58.70
48551;DHT22;34397;51.176;6.738;2022-09-30T00:55:48;8.60;58.70
48551;DHT22;34397;51.176;6.738;2022-09-30T00:58:27;8.50;59.00
48551;DHT22;34397;51.176;6.738;2022-09-30T01:01:02;8.60;58.50
48551;DHT22;34397;51.176;6.738;2022-09-30T01:03:37;8.50;58.60
48551;DHT22;34397;51.176;6.738;2022-09-30T01:06:11;8.50;58.30
48551;DHT22;34397;51.176;6.738;2022-09-30T01:08:44;8.40;58.80
48551;DHT22;34397;51.176;6.738;2022-09-30T01:11:17;8.40;58.90
48551;DHT22;34397;51.176;6.738;2022-09-30T01:13:52;8.40;59.00
48551;DHT22;34397;51.176;6.738;2022-09-30T01:16:38;8.40;58.80
48551;DHT22;34397;51.176;6.738;2022-09-30T01:19:25;8.40;58.20
48551;DHT22;34397;51.176;6.738;2022-09-30T01:22:20;8.30;58.20
48551;DHT22;34397;51.176;6.738;2022-09-30T01:25:29;8.30;58.40
48551;DHT22;34397;51.176;6.738;2022-09-30T01:28:48;8.30;58.30
48551;DHT22;34397;51.176;6.738;2022-09-30T01:31:45;8.30;58.20
48551;DHT22;34397;51.176;6.738;2022-09-30T01:34:30;8.20;58.30
48551;DHT22;34397;51.176;6.738;2022-09-30T01:37:11;8.20;58.50
48551;DHT22;34397;51.176;6.738;2022-09-30T01:39:54;8.20;59.30
48551;DHT22;34397;51.176;6.738;2022-09-30T01:42:37;8.20;59.70
48551;DHT22;34397;51.176;6.738;2022-09-30T01:45:14;8.20;59.40
48551;DHT22;34397;51.176;6.738;2022-09-30T01:47:51;8.20;59.90
48551;DHT22;34397;51.176;6.738;2022-09-30T01:50:33;8.20;59.80
48551;DHT22;34397;51.176;6.738;2022-09-30T01:53:15;8.20;59.70
48551;DHT22;34397;51.176;6.738;2022-09-30T01:55:56;8.20;59.30
48551;DHT22;34397;51.176;6.738;2022-09-30T01:58:38;8.20;59.50
48551;DHT22;34397;51.176;6.738;2022-09-30T02:01:16;8.10;59.30
48551;DHT22;34397;51.176;6.738;2022-09-30T02:03:54;8.20;59.50
48551;DHT22;34397;51.176;6.738;2022-09-30T02:06:32;8.10;59.30
48551;DHT22;34397;51.176;6.738;2022-09-30T02:09:12;8.10;59.30
48551;DHT22;34397;51.176;6.738;2022-09-30T02:11:45;8.10;59.00
48551;DHT22;34397;51.176;6.738;2022-09-30T02:14:23;8.10;59.40
48551;DHT22;34397;51.176;6.738;2022-09-30T02:16:59;8.00;59.40
48551;DHT22;34397;51.176;6.738;2022-09-30T02:19:38;8.00;59.50
48551;DHT22;34397;51.176;6.738;2022-09-30T02:22:15;8.00;58.80
48551;DHT22;34397;51.176;6.738;2022-09-30T02:24:51;8.00;59.00
48551;DHT22;34397;51.176;6.738;2022-09-30T02:27:28;7.90;59.30
48551;DHT22;34397;51.176;6.738;2022-09-30T02:30:03;7.90;59.60
48551;DHT22;34397;51.176;6.738;2022-09-30T02:32:41;7.90;60.00
48551;DHT22;34397;51.176;6.738;2022-09-30T02:35:20;7.90;59.50
48551;DHT22;34397;51.176;6.738;2022-09-30T02:37:57;7.80;59.10
48551;DHT22;34397;51.176;6.738;2022-09-30T02:40:37;7.80;59.20
48551;DHT22;34397;51.176;6.738;2022-09-30T02:43:11;7.80;59.30
48551;DHT22;34397;51.176;6.738;2022-09-30T02:45:48;7.80;59.40
48551;DHT22;34397;51.176;6.738;2022-09-30T02:48:26;7.80;59.20
48551;DHT22;34397;51.176;6.738;2022-09-30T02:51:05;7.70;59.30
48551;DHT22;34397;51.176;6.738;2022-09-30T02:53:44;7.70;59.30
48551;DHT22;34397;51.176;6.738;2022-09-30T02:56:25;7.70;59.60
48551;DHT22;34397;51.176;6.738;2022-09-30T02:59:04;7.70;60.00
48551;DHT22;34397;51.176;6.738;2022-09-30T03:01:35;7.70;60.20
48551;DHT22;34397;51.176;6.738;2022-09-30T03:04:14;7.70;60.10
48551;DHT22;34397;51.176;6.738;2022-09-30T03:06:49;7.60;59.80
48551;DHT22;34397;51.176;6.738;2022-09-30T03:09:24;7.60;59.80
48551;DHT22;34397;51.176;6.738;2022-09-30T03:12:04;7.60;60.60
48551;DHT22;34397;51.176;6.738;2022-09-30T03:14:55;7.60;60.50
48551;DHT22;34397;51.176;6.738;2022-09-30T03:17:54;7.60;60.20
48551;DHT22;34397;51.176;6.738;2022-09-30T03:20:36;7.70;60.00
48551;DHT22;34397;51.176;6.738;2022-09-30T03:23:25;7.70;60.20
48551;DHT22;34397;51.176;6.738;2022-09-30T03:26:39;7.70;60.20
48551;DHT22;34397;51.176;6.738;2022-09-30T03:29:21;7.70;60.50
48551;DHT22;34397;51.176;6.738;2022-09-30T03:32:06;7.60;60.40
48551;DHT22;34397;51.176;6.738;2022-09-30T03:35:02;7.60;60.00
48551;DHT22;34397;51.176;6.738;2022-09-30T03:37:44;7.60;59.90
48551;DHT22;34397;51.176;6.738;2022-09-30T03:40:28;7.60;60.70
48551;DHT22;34397;51.176;6.738;2022-09-30T03:43:04;7.50;60.50
48551;DHT22;34397;51.176;6.738;2022-09-30T03:45:43;7.60;60.60
48551;DHT22;34397;51.176;6.738;2022-09-30T03:48:17;7.50;60.50
48551;DHT22;34397;51.176;6.738;2022-09-30T03:50:51;7.50;60.60
48551;DHT22;34397;51.176;6.738;2022-09-30T03:53:23;7.50;61.00
48551;DHT22;34397;51.176;6.738;2022-09-30T03:55:59;7.50;61.40
48551;DHT22;34397;51.176;6.738;2022-09-30T03:58:31;7.50;61.60
48551;DHT22;34397;51.176;6.738;2022-09-30T04:01:03;7.50;61.80
48551;DHT22;34397;51.176;6.738;2022-09-30T04:03:35;7.60;62.30
48551;DHT22;34397;51.176;6.738;2022-09-30T04:06:09;7.60;63.00
48551;DHT22;34397;51.176;6.738;2022-09-30T04:08:43;7.60;62.10
48551;DHT22;34397;51.176;6.738;2022-09-30T04:11:16;7.60;62.30
48551;DHT22;34397;51.176;6.738;2022-09-30T04:13:48;7.60;62.30
48551;DHT22;34397;51.176;6.738;2022-09-30T04:16:20;7.70;62.20
48551;DHT22;34397;51.176;6.738;2022-09-30T04:18:51;7.70;62.40
48551;DHT22;34397;51.176;6.738;2022-09-30T04:21:24;7.70;62.60
48551;DHT22;34397;51.176;6.738;2022-09-30T04:23:58;7.70;63.40
48551;DHT22;34397;51.176;6.738;2022-09-30T04:26:31;7.70;62.80
48551;DHT22;34397;51.176;6.738;2022-09-30T04:29:02;7.70;63.20
48551;DHT22;34397;51.176;6.738;2022-09-30T04:31:34;7.70;62.30
48551;DHT22;34397;51.176;6.738;2022-09-30T04:34:06;7.70;62.30
48551;DHT22;34397;51.176;6.738;2022-09-30T04:36:39;7.70;62.20
48551;DHT22;34397;51.176;6.738;2022-09-30T04:39:11;7.70;61.80
48551;DHT22;34397;51.176;6.738;2022-09-30T04:41:44;7.70;62.00
48551;DHT22;34397;51.176;6.738;2022-09-30T04:44:16;7.60;62.00
48551;DHT22;34397;51.176;6.738;2022-09-30T04:46:48;7.60;62.70
48551;DHT22;34397;51.176;6.738;2022-09-30T04:49:20;7.60;62.90
48551;DHT22;34397;51.176;6.738;2022-09-30T04:51:53;7.60;62.80
48551;DHT22;34397;51.176;6.738;2022-09-30T04:54:25;7.60;62.60
48551;DHT22;34397;51.176;6.738;2022-09-30T04:56:58;7.60;62.70
48551;DHT22;34397;51.176;6.738;2022-09-30T04:59:30;7.60;62.70
48551;DHT22;34397;51.176;6.738;2022-09-30T05:02:03;7.70;62.50
48551;DHT22;34397;51.176;6.738;2022-09-30T05:04:35;7.70;62.60
48551;DHT22;34397;51.176;6.738;2022-09-30T05:07:07;7.60;62.50
48551;DHT22;34397;51.176;6.738;2022-09-30T05:09:39;7.60;62.60
48551;DHT22;34397;51.176;6.738;2022-09-30T05:12:13;7.60;62.60
48551;DHT22;34397;51.176;6.738;2022-09-30T05:14:45;7.60;62.60
48551;DHT22;34397;51.176;6.738;2022-09-30T05:17:16;7.60;62.90
48551;DHT22;34397;51.176;6.738;2022-09-30T05:19:48;7.60;63.80
48551;DHT22;34397;51.176;6.738;2022-09-30T05:22:20;7.60;63.30
48551;DHT22;34397;51.176;6.738;2022-09-30T05:24:54;7.60;62.90
48551;DHT22;34397;51.176;6.738;2022-09-30T05:27:27;7.60;62.80
48551;DHT22;34397;51.176;6.738;2022-09-30T05:29:59;7.60;62.60
48551;DHT22;34397;51.176;6.738;2022-09-30T05:32:31;7.50;62.70
48551;DHT22;34397;51.176;6.738;2022-09-30T05:35:03;7.60;62.80
48551;DHT22;34397;51.176;6.738;2022-09-30T05:37:35;7.50;62.70
48551;DHT22;34397;51.176;6.738;2022-09-30T05:40:08;7.50;62.50
48551;DHT22;34397;51.176;6.738;2022-09-30T05:42:41;7.50;62.30
48551;DHT22;34397;51.176;6.738;2022-09-30T05:45:16;7.50;62.30
48551;DHT22;34397;51.176;6.738;2022-09-30T05:47:50;7.40;62.10
48551;DHT22;34397;51.176;6.738;2022-09-30T05:50:23;7.40;62.40
48551;DHT22;34397;51.176;6.738;2022-09-30T05:52:55;7.40;62.50
48551;DHT22;34397;51.176;6.738;2022-09-30T05:55:27;7.30;62.60
48551;DHT22;34397;51.176;6.738;2022-09-30T05:58:00;7.30;62.40
48551;DHT22;34397;51.176;6.738;2022-09-30T06:00:32;7.30;62.70
48551;DHT22;34397;51.176;6.738;2022-09-30T06:03:04;7.30;62.60
48551;DHT22;34397;51.176;6.738;2022-09-30T06:05:36;7.40;63.00
48551;DHT22;34397;51.176;6.738;2022-09-30T06:08:08;7.40;63.00
48551;DHT22;34397;51.176;6.738;2022-09-30T06:10:41;7.40;63.00
48551;DHT22;34397;51.176;6.738;2022-09-30T06:13:15;7.40;63.20
48551;DHT22;34397;51.176;6.738;2022-09-30T06:15:54;7.40;63.20
48551;DHT22;34397;51.176;6.738;2022-09-30T06:18:28;7.40;63.40
48551;DHT22;34397;51.176;6.738;2022-09-30T06:21:01;7.40;63.50
48551;DHT22;34397;51.176;6.738;2022-09-30T06:23:34;7.40;63.20
48551;DHT22;34397;51.176;6.738;2022-09-30T06:26:07;7.40;63.50
48551;DHT22;34397;51.176;6.738;2022-09-30T06:28:42;7.40;63.50
48551;DHT22;34397;51.176;6.738;2022-09-30T06:31:14;7.50;63.70
48551;DHT22;34397;51.176;6.738;2022-09-30T06:33:46;7.50;64.00
48551;DHT22;34397;51.176;6.738;2022-09-30T06:36:18;7.50;64.30
48551;DHT22;34397;51.176;6.738;2022-09-30T06:38:50;7.60;64.50
48551;DHT22;34397;51.176;6.738;2022-09-30T06:41:23;7.60;65.10
48551;DHT22;34397;51.176;6.738;2022-09-30T06:43:58;7.70;64.60
48551;DHT22;34397;51.176;6.738;2022-09-30T06:46:30;7.70;64.60
48551;DHT22;34397;51.176;6.738;2022-09-30T06:49:02;7.70;64.00
48551;DHT22;34397;51.176;6.738;2022-09-30T06:51:35;7.80;64.40
48551;DHT22;34397;51.176;6.738;2022-09-30T06:54:07;7.80;64.50
48551;DHT22;34397;51.176;6.738;2022-09-30T06:56:39;7.80;64.50
48551;DHT22;34397;51.176;6.738;2022-09-30T06:59:12;7.90;64.50
48551;DHT22;34397;51.176;6.738;2022-09-30T07:01:46;7.90;64.50
48551;DHT22;34397;51.176;6.738;2022-09-30T07:04:18;7.90;64.50
48551;DHT22;34397;51.176;6.738;2022-09-30T07:06:50;7.90;64.50
48551;DHT22;34397;51.176;6.738;2022-09-30T07:09:22;7.90;64.40
48551;DHT22;34397;51.176;6.738;2022-09-30T07:11:54;8.00;64.50
48551;DHT22;34397;51.176;6.738;2022-09-30T07:14:28;8.00;64.40
48551;DHT22;34397;51.176;6.738;2022-09-30T07:17:02;8.00;64.40
48551;DHT22;34397;51.176;6.738;2022-09-30T07:19:34;8.10;64.30
48551;DHT22;34397;51.176;6.738;2022-09-30T07:22:06;8.10;64.30
48551;DHT22;34397;51.176;6.738;2022-09-30T07:24:56;8.10;64.40
48551;DHT22;34397;51.176;6.738;2022-09-30T07:27:31;8.20;64.50
48551;DHT22;34397;51.176;6.738;2022-09-30T07:30:06;8.20;64.60
48551;DHT22;34397;51.176;6.738;2022-09-30T07:32:38;8.20;64.60
48551;DHT22;34397;51.176;6.738;2022-09-30T07:35:10;8.20;64.10
48551;DHT22;34397;51.176;6.738;2022-09-30T07:37:41;8.30;64.10
48551;DHT22;34397;51.176;6.738;2022-09-30T07:40:13;8.30;64.00
48551;DHT22;34397;51.176;6.738;2022-09-30T07:42:45;8.30;64.00
48551;DHT22;34397;51.176;6.738;2022-09-30T07:45:19;8.40;64.20
48551;DHT22;34397;51.176;6.738;2022-09-30T07:47:50;8.40;64.20
48551;DHT22;34397;51.176;6.738;2022-09-30T07:50:22;8.40;63.60
48551;DHT22;34397;51.176;6.738;2022-09-30T07:52:54;8.40;63.80
48551;DHT22;34397;51.176;6.738;2022-09-30T07:55:26;8.50;64.10
48551;DHT22;34397;51.176;6.738;2022-09-30T07:57:59;8.50;64.00
48551;DHT22;34397;51.176;6.738;2022-09-30T08:00:32;8.50;64.20
48551;DHT22;34397;51.176;6.738;2022-09-30T08:03:03;8.60;64.40
48551;DHT22;34397;51.176;6.738;2022-09-30T08:05:38;8.60;63.80
48551;DHT22;34397;51.176;6.738;2022-09-30T08:08:10;8.60;64.10
48551;DHT22;34397;51.176;6.738;2022-09-30T08:10:42;8.70;64.00
48551;DHT22;34397;51.176;6.738;2022-09-30T08:13:14;8.70;64.20
48551;DHT22;34397;51.176;6.738;2022-09-30T08:15:48;8.70;64.30
48551;DHT22;34397;51.176;6.738;2022-09-30T08:18:19;8.80;64.40
48551;DHT22;34397;51.176;6.738;2022-09-30T08:20:51;8.80;63.80
48551;DHT22;34397;51.176;6.738;2022-09-30T08:23:23;8.90;64.10
48551;DHT22;34397;51.176;6.738;2022-09-30T08:25:59;8.90;64.00
48551;DHT22;34397;51.176;6.738;2022-09-30T08:28:32;8.90;64.30
48551;DHT22;34397;51.176;6.738;2022-09-30T08:31:09;9.00;64.00
48551;DHT22;34397;51.176;6.738;2022-09-30T08:33:42;9.00;64.00
48551;DHT22;34397;51.176;6.738;2022-09-30T08:36:15;9.10;64.00
48551;DHT22;34397;51.176;6.738;2022-09-30T08:38:48;9.10;63.90
48551;DHT22;34397;51.176;6.738;2022-09-30T08:41:31;9.20;63.90
48551;DHT22;34397;51.176;6.738;2022-09-30T08:44:24;9.20;64.00
48551;DHT22;34397;51.176;6.738;2022-09-30T08:47:13;9.30;64.30
48551;DHT22;34397;51.176;6.738;2022-09-30T08:50:05;9.40;64.20
48551;DHT22;34397;51.176;6.738;2022-09-30T08:52:45;9.40;63.60
48551;DHT22;34397;51.176;6.738;2022-09-30T08:55:21;9.50;63.50
48551;DHT22;34397;51.176;6.738;2022-09-30T08:57:55;9.60;63.70
48551;DHT22;34397;51.176;6.738;2022-09-30T09:00:27;9.60;63.30
48551;DHT22;34397;51.176;6.738;2022-09-30T09:03:01;9.70;63.30
48551;DHT22;34397;51.176;6.738;2022-09-30T09:05:43;9.70;63.80
48551;DHT22;34397;51.176;6.738;2022-09-30T09:08:26;9.80;64.00
48551;DHT22;34397;51.176;6.738;2022-09-30T09:11:06;9.80;63.40
48551;DHT22;34397;51.176;6.738;2022-09-30T09:13:49;9.90;63.80
48551;DHT22;34397;51.176;6.738;2022-09-30T09:16:28;10.00;63.60
48551;DHT22;34397;51.176;6.738;2022-09-30T09:19:08;10.10;63.00
48551;DHT22;34397;51.176;6.738;2022-09-30T09:21:50;10.20;63.40
48551;DHT22;34397;51.176;6.738;2022-09-30T09:24:26;10.20;63.20
48551;DHT22;34397;51.176;6.738;2022-09-30T09:26:59;10.30;62.60
48551;DHT22;34397;51.176;6.738;2022-09-30T09:29:52;10.40;62.60
48551;DHT22;34397;51.176;6.738;2022-09-30T09:32:31;10.40;62.80
48551;DHT22;34397;51.176;6.738;2022-09-30T09:35:13;10.50;62.50
48551;DHT22;34397;51.176;6.738;2022-09-30T09:37:48;10.60;62.80
48551;DHT22;34397;51.176;6.738;2022-09-30T09:40:48;10.70;62.10
48551;DHT22;34397;51.176;6.738;2022-09-30T09:43:45;10.80;62.20
48551;DHT22;34397;51.176;6.738;2022-09-30T09:46:24;10.80;62.60
48551;DHT22;34397;51.176;6.738;2022-09-30T09:49:27;10.90;61.90
48551;DHT22;34397;51.176;6.738;2022-09-30T09:52:25;11.00;62.70
48551;DHT22;34397;51.176;6.738;2022-09-30T09:55:06;11.10;62.20
48551;DHT22;34397;51.176;6.738;2022-09-30T09:57:38;11.20;61.60
48551;DHT22;34397;51.176;6.738;2022-09-30T10:00:21;11.30;61.70
48551;DHT22;34397;51.176;6.738;2022-09-30T10:03:13;11.40;61.70
48551;DHT22;34397;51.176;6.738;2022-09-30T10:06:01;11.50;61.40
48551;DHT22;34397;51.176;6.738;2022-09-30T10:08:37;11.60;61.60
48551;DHT22;34397;51.176;6.738;2022-09-30T10:11:19;11.60;61.00
48551;DHT22;34397;51.176;6.738;2022-09-30T10:13:54;11.80;60.50
48551;DHT22;34397;51.176;6.738;2022-09-30T10:16:30;11.80;60.20
48551;DHT22;34397;51.176;6.738;2022-09-30T10:19:17;12.00;61.10
48551;DHT22;34397;51.176;6.738;2022-09-30T10:21:52;12.20;61.40
48551;DHT22;34397;51.176;6.738;2022-09-30T10:25:10;12.60;61.30
48551;DHT22;34397;51.176;6.738;2022-09-30T10:27:54;13.20;60.40
48551;DHT22;34397;51.176;6.738;2022-09-30T10:30:34;13.80;59.40
48551;DHT22;34397;51.176;6.738;2022-09-30T10:33:17;14.50;57.40
48551;DHT22;34397;51.176;6.738;2022-09-30T10:35:54;15.20;56.60
48551;DHT22;34397;51.176;6.738;2022-09-30T10:38:29;15.90;55.30
48551;DHT22;34397;51.176;6.738;2022-09-30T10:41:04;16.60;52.80
48551;DHT22;34397;51.176;6.738;2022-09-30T10:43:41;17.20;49.70
48551;DHT22;34397;51.176;6.738;2022-09-30T10:46:21;17.70;48.40
48551;DHT22;34397;51.176;6.738;2022-09-30T10:48:55;18.30;46.80
48551;DHT22;34397;51.176;6.738;2022-09-30T10:51:30;18.90;46.10
48551;DHT22;34397;51.176;6.738;2022-09-30T10:54:09;19.40;45.40
48551;DHT22;34397;51.176;6.738;2022-09-30T10:57:15;19.90;43.70
48551;DHT22;34397;51.176;6.738;2022-09-30T10:59:54;20.50;42.00
48551;DHT22;34397;51.176;6.738;2022-09-30T11:02:34;21.00;41.70
48551;DHT22;34397;51.176;6.738;2022-09-30T11:05:14;21.40;40.30
48551;DHT22;34397;51.176;6.738;2022-09-30T11:07:52;21.70;40.60
48551;DHT22;34397;51.176;6.738;2022-09-30T11:10:38;22.00;39.50
48551;DHT22;34397;51.176;6.738;2022-09-30T11:13:18;22.40;38.10
48551;DHT22;34397;51.176;6.738;2022-09-30T11:15:59;22.70;36.20
48551;DHT22;34397;51.176;6.738;2022-09-30T11:18:39;22.90;34.70
48551;DHT22;34397;51.176;6.738;2022-09-30T11:21:17;23.20;35.00
48551;DHT22;34397;51.176;6.738;2022-09-30T11:23:53;23.40;34.50
48551;DHT22;34397;51.176;6.738;2022-09-30T11:26:40;23.60;35.60
48551;DHT22;34397;51.176;6.738;2022-09-30T11:32:24;24.20;33.60
48551;DHT22;34397;51.176;6.738;2022-09-30T11:35:13;24.40;32.20
48551;DHT22;34397;51.176;6.738;2022-09-30T11:38:04;24.60;33.30
48551;DHT22;34397;51.176;6.738;2022-09-30T11:40:48;24.80;31.00
48551;DHT22;34397;51.176;6.738;2022-09-30T11:43:30;24.80;31.20
48551;DHT22;34397;51.176;6.738;2022-09-30T11:46:17;24.90;31.10
48551;DHT22;34397;51.176;6.738;2022-09-30T11:49:10;24.90;31.30
48551;DHT22;34397;51.176;6.738;2022-09-30T11:51:56;24.80;30.60
48551;DHT22;34397;51.176;6.738;2022-09-30T11:54:46;24.70;30.90
48551;DHT22;34397;51.176;6.738;2022-09-30T11:57:44;24.70;31.20
48551;DHT22;34397;51.176;6.738;2022-09-30T12:00:21;24.60;31.70
48551;DHT22;34397;51.176;6.738;2022-09-30T12:02:54;24.60;31.50
48551;DHT22;34397;51.176;6.738;2022-09-30T12:05:37;24.70;31.40
48551;DHT22;34397;51.176;6.738;2022-09-30T12:11:22;25.00;30.00
48551;DHT22;34397;51.176;6.738;2022-09-30T12:14:03;25.00;29.90
48551;DHT22;34397;51.176;6.738;2022-09-30T12:16:39;25.00;30.80
48551;DHT22;34397;51.176;6.738;2022-09-30T12:19:14;24.80;30.70
48551;DHT22;34397;51.176;6.738;2022-09-30T12:21:53;24.80;30.80
48551;DHT22;34397;51.176;6.738;2022-09-30T12:24:35;24.50;30.20
48551;DHT22;34397;51.176;6.738;2022-09-30T12:27:14;24.30;30.60
48551;DHT22;34397;51.176;6.738;2022-09-30T12:29:54;24.10;30.60
48551;DHT22;34397;51.176;6.738;2022-09-30T12:33:12;23.90;31.20
48551;DHT22;34397;51.176;6.738;2022-09-30T12:36:08;23.80;31.90
48551;DHT22;34397;51.176;6.738;2022-09-30T12:45:41;23.70;31.20
48551;DHT22;34397;51.176;6.738;2022-09-30T12:48:28;23.40;30.80
48551;DHT22;34397;51.176;6.738;2022-09-30T12:51:04;23.00;31.90
48551;DHT22;34397;51.176;6.738;2022-09-30T12:53:38;22.80;32.40
48551;DHT22;34397;51.176;6.738;2022-09-30T12:56:13;22.60;32.50
48551;DHT22;34397;51.176;6.738;2022-09-30T12:58:48;22.40;34.30
48551;DHT22;34397;51.176;6.738;2022-09-30T13:01:22;22.30;32.60
48551;DHT22;34397;51.176;6.738;2022-09-30T13:04:30;22.20;33.20
48551;DHT22;34397;51.176;6.738;2022-09-30T13:07:15;22.30;33.40
48551;DHT22;34397;51.176;6.738;2022-09-30T13:13:19;22.40;32.50
48551;DHT22;34397;51.176;6.738;2022-09-30T13:15:53;22.50;32.40
48551;DHT22;34397;51.176;6.738;2022-09-30T13:18:57;22.50;32.20
48551;DHT22;34397;51.176;6.738;2022-09-30T13:21:32;22.30;32.00
48551;DHT22;34397;51.176;6.738;2022-09-30T13:24:06;22.30;31.40
48551;DHT22;34397;51.176;6.738;2022-09-30T13:26:41;22.40;32.20
48551;DHT22;34397;51.176;6.738;2022-09-30T13:29:46;22.40;32.40
48551;DHT22;34397;51.176;6.738;2022-09-30T13:32:32;22.60;32.50
48551;DHT22;34397;51.176;6.738;2022-09-30T13:35:29;22.70;31.70
48551;DHT22;34397;51.176;6.738;2022-09-30T13:38:18;22.80;31.80
48551;DHT22;34397;51.176;6.738;2022-09-30T13:40:53;22.90;31.20
48551;DHT22;34397;51.176;6.738;2022-09-30T13:43:39;22.80;30.20
48551;DHT22;34397;51.176;6.738;2022-09-30T13:46:22;22.60;30.20
48551;DHT22;34397;51.176;6.738;2022-09-30T13:49:00;22.50;30.40
48551;DHT22;34397;51.176;6.738;2022-09-30T13:51:35;22.30;33.30
48551;DHT22;34397;51.176;6.738;2022-09-30T13:54:15;22.30;34.30
48551;DHT22;34397;51.176;6.738;2022-09-30T13:56:52;22.30;31.50
48551;DHT22;34397;51.176;6.738;2022-09-30T13:59:34;22.30;31.00
48551;DHT22;34397;51.176;6.738;2022-09-30T14:02:31;22.40;32.40
48551;DHT22;34397;51.176;6.738;2022-09-30T14:05:25;22.50;30.80
48551;DHT22;34397;51.176;6.738;2022-09-30T14:08:16;22.50;30.90
48551;DHT22;34397;51.176;6.738;2022-09-30T14:11:29;22.50;31.30
48551;DHT22;34397;51.176;6.738;2022-09-30T14:14:37;22.40;30.90
48551;DHT22;34397;51.176;6.738;2022-09-30T14:17:28;22.30;33.50
48551;DHT22;34397;51.176;6.738;2022-09-30T14:20:17;22.50;31.20
48551;DHT22;34397;51.176;6.738;2022-09-30T14:22:57;22.70;31.00
48551;DHT22;34397;51.176;6.738;2022-09-30T14:25:34;22.80;30.70
48551;DHT22;34397;51.176;6.738;2022-09-30T14:28:15;23.00;31.80
48551;DHT22;34397;51.176;6.738;2022-09-30T14:30:48;23.10;31.00
48551;DHT22;34397;51.176;6.738;2022-09-30T14:33:35;23.20;31.00
48551;DHT22;34397;51.176;6.738;2022-09-30T14:36:12;23.40;31.10
48551;DHT22;34397;51.176;6.738;2022-09-30T14:38:50;23.50;31.40
48551;DHT22;34397;51.176;6.738;2022-09-30T14:41:25;23.60;30.50
48551;DHT22;34397;51.176;6.738;2022-09-30T14:44:00;23.70;30.40
48551;DHT22;34397;51.176;6.738;2022-09-30T14:46:37;23.80;30.30
48551;DHT22;34397;51.176;6.738;2022-09-30T14:49:14;23.80;30.30
48551;DHT22;34397;51.176;6.738;2022-09-30T14:51:48;23.80;30.50
48551;DHT22;34397;51.176;6.738;2022-09-30T14:54:21;23.70;29.90
48551;DHT22;34397;51.176;6.738;2022-09-30T14:56:57;23.70;30.40
48551;DHT22;34397;51.176;6.738;2022-09-30T14:59:33;23.60;30.60
48551;DHT22;34397;51.176;6.738;2022-09-30T15:02:12;23.60;31.70
48551;DHT22;34397;51.176;6.738;2022-09-30T15:04:49;23.60;30.30
48551;DHT22;34397;51.176;6.738;2022-09-30T15:07:22;23.50;30.30
48551;DHT22;34397;51.176;6.738;2022-09-30T15:10:00;23.40;30.30
48551;DHT22;34397;51.176;6.738;2022-09-30T15:12:34;23.30;30.20
48551;DHT22;34397;51.176;6.738;2022-09-30T15:15:23;23.10;30.60
48551;DHT22;34397;51.176;6.738;2022-09-30T15:18:25;22.90;30.30
48551;DHT22;34397;51.176;6.738;2022-09-30T15:21:06;22.60;30.80
48551;DHT22;34397;51.176;6.738;2022-09-30T15:23:41;22.50;30.40
48551;DHT22;34397;51.176;6.738;2022-09-30T15:26:15;22.40;31.20
48551;DHT22;34397;51.176;6.738;2022-09-30T15:28:48;22.30;31.70
48551;DHT22;34397;51.176;6.738;2022-09-30T15:31:24;22.30;31.80
48551;DHT22;34397;51.176;6.738;2022-09-30T15:34:06;22.30;31.00
48551;DHT22;34397;51.176;6.738;2022-09-30T15:36:43;22.10;30.50
48551;DHT22;34397;51.176;6.738;2022-09-30T15:39:20;22.00;32.10
48551;DHT22;34397;51.176;6.738;2022-09-30T15:41:53;21.90;31.50
48551;DHT22;34397;51.176;6.738;2022-09-30T15:44:36;21.80;31.20
48551;DHT22;34397;51.176;6.738;2022-09-30T15:47:10;21.60;32.30
48551;DHT22;34397;51.176;6.738;2022-09-30T15:49:46;21.40;31.50
48551;DHT22;34397;51.176;6.738;2022-09-30T15:52:26;21.30;31.30
48551;DHT22;34397;51.176;6.738;2022-09-30T15:55:00;21.00;32.00
48551;DHT22;34397;51.176;6.738;2022-09-30T15:57:52;20.80;32.20
48551;DHT22;34397;51.176;6.738;2022-09-30T16:00:33;20.50;33.00
48551;DHT22;34397;51.176;6.738;2022-09-30T16:03:26;20.30;33.30
48551;DHT22;34397;51.176;6.738;2022-09-30T16:06:09;20.10;33.90
48551;DHT22;34397;51.176;6.738;2022-09-30T16:08:47;19.90;33.70
48551;DHT22;34397;51.176;6.738;2022-09-30T16:11:26;19.70;35.20
48551;DHT22;34397;51.176;6.738;2022-09-30T16:14:08;19.40;34.60
48551;DHT22;34397;51.176;6.738;2022-09-30T16:16:48;19.20;35.10
48551;DHT22;34397;51.176;6.738;2022-09-30T16:19:23;19.00;35.30
48551;DHT22;34397;51.176;6.738;2022-09-30T16:21:56;18.80;35.50
48551;DHT22;34397;51.176;6.738;2022-09-30T16:24:41;18.60;36.20
48551;DHT22;34397;51.176;6.738;2022-09-30T16:27:27;18.50;37.00
48551;DHT22;34397;51.176;6.738;2022-09-30T16:30:01;18.30;37.30
48551;DHT22;34397;51.176;6.738;2022-09-30T16:32:37;18.20;37.20
48551;DHT22;34397;51.176;6.738;2022-09-30T16:35:22;18.00;37.10
48551;DHT22;34397;51.176;6.738;2022-09-30T16:37:59;17.90;37.60
48551;DHT22;34397;51.176;6.738;2022-09-30T16:40:33;17.80;38.10
48551;DHT22;34397;51.176;6.738;2022-09-30T16:43:07;17.70;38.20
48551;DHT22;34397;51.176;6.738;2022-09-30T16:45:41;17.50;38.20
48551;DHT22;34397;51.176;6.738;2022-09-30T16:48:14;17.40;38.10
48551;DHT22;34397;51.176;6.738;2022-09-30T16:50:49;17.30;39.00
48551;DHT22;34397;51.176;6.738;2022-09-30T16:53:23;17.30;38.80
48551;DHT22;34397;51.176;6.738;2022-09-30T16:55:55;17.20;39.00
48551;DHT22;34397;51.176;6.738;2022-09-30T16:58:27;17.10;38.90
48551;DHT22;34397;51.176;6.738;2022-09-30T17:01:00;17.00;39.30
48551;DHT22;34397;51.176;6.738;2022-09-30T17:03:33;17.00;39.50
48551;DHT22;34397;51.176;6.738;2022-09-30T17:06:06;16.90;39.50
48551;DHT22;34397;51.176;6.738;2022-09-30T17:08:38;16.80;39.80